LFRZ/SNR METAR and TAF weather

Enter ICAO airport designator
Station Type Date Time Source
LFRZ METAR 2021/05/14 22:00 UTC NOAA

LFRZ 142200Z AUTO 18014KT 6000 -RA FEW017 BKN032 BKN040 11/09 Q1009 TEMPO 19020G30KT 4500 RA BECMG BKN004


Station Type Date Time Source
LFRZ Decoded METAR 2021/05/14 22:00 UTC NOAA

St-Nazaire, France (LFRZ) 47-19N 002-10W 4M
May 14, 2021 - 06:00 PM EDT / 2021.05.14 2200 UTC
Wind: from the S (180 degrees) at 16 MPH (14 KT):0
Visibility: 3 mile(s):0
Sky conditions: mostly cloudy
Weather: light rain
Temperature: 51 F (11 C)
Dew Point: 48 F (9 C)
Relative Humidity: 87%
Pressure (altimeter): 29.80 in. Hg (1009 hPa)
ob: LFRZ 142200Z AUTO 18014KT 6000 -RA FEW017 BKN032 BKN040 11/09 Q1009 TEMPO 19020G30KT 4500 RA BECMG BKN004
cycle: 22

Station Type Date Time Source
LFRZ TAF 2021/05/14 21:19 UTC NOAA

TAF
AMD LFRZ 142114Z 1421/1518 22014KT 9999 -RA SCT014 BKN040
TEMPO 1421/1423 4500 RA BKN008
TEMPO 1423/1501 19020G30KT
BECMG 1423/1501 9999 NSW BKN004
BECMG 1502/1504 SCT020
TEMPO 1511/1515 -SHRA BKN030TCU
BECMG 1515/1517 23020KT

Example: see airport list